createdAt,value
2022-10-20T00:00:22.339Z,95999.88
2022-10-20T00:02:51.921Z,95999.94
2022-10-20T00:05:22.977Z,95998.63
2022-10-20T00:07:52.477Z,96006.16
2022-10-20T00:10:21.901Z,96002.16
2022-10-20T00:12:51.460Z,95991.97
2022-10-20T00:15:20.827Z,96005.97
2022-10-20T00:17:50.181Z,95999.53
2022-10-20T00:20:19.777Z,95989.34
2022-10-20T00:22:50.525Z,95991.75
2022-10-20T00:25:19.858Z,95995.00
2022-10-20T00:27:49.233Z,95994.50
2022-10-20T00:30:21.387Z,95997.50
2022-10-20T00:32:53.040Z,95987.31
2022-10-20T00:35:22.552Z,95979.00
2022-10-20T00:37:53.259Z,95979.28
2022-10-20T00:40:22.677Z,95973.66
2022-10-20T00:42:52.113Z,95974.44
2022-10-20T00:45:23.287Z,95967.75
2022-10-20T00:47:55.919Z,95958.63
2022-10-20T00:50:31.237Z,95955.69
2022-10-20T00:53:03.594Z,95949.00
2022-10-20T00:55:37.327Z,95950.88
2022-10-20T00:58:07.275Z,95950.59
2022-10-20T01:00:38.673Z,95949.28
2022-10-20T01:03:13.840Z,95947.41
2022-10-20T01:05:43.561Z,95944.47
2022-10-20T01:08:14.349Z,95934.53
2022-10-20T01:10:55.061Z,95933.22
2022-10-20T01:13:36.777Z,95937.50
2022-10-20T01:16:17.154Z,95932.94
2022-10-20T01:19:02.035Z,95941.56
2022-10-20T01:22:20.285Z,95938.38
2022-10-20T01:25:18.489Z,95936.22
2022-10-20T01:27:54.398Z,95934.06
2022-10-20T01:30:25.405Z,95936.75
2022-10-20T01:33:19.618Z,95940.25
2022-10-20T01:36:01.513Z,95940.00
2022-10-20T01:38:41.881Z,95936.28
2022-10-20T01:41:19.072Z,95922.84
2022-10-20T01:43:51.217Z,95920.44
2022-10-20T01:46:25.521Z,95917.25
2022-10-20T01:48:56.578Z,95914.28
2022-10-20T01:51:26.076Z,95920.22
2022-10-20T01:53:55.610Z,95917.28
2022-10-20T01:56:38.026Z,95919.97
2022-10-20T01:59:33.910Z,95913.25
2022-10-20T02:03:07.392Z,95905.75
2022-10-20T02:06:03.793Z,95896.34
2022-10-20T02:08:45.238Z,95894.72
2022-10-20T02:11:24.645Z,95892.59
2022-10-20T02:13:58.016Z,95897.47
2022-10-20T02:16:32.995Z,95893.44
2022-10-20T02:19:04.609Z,95883.78
2022-10-20T02:21:34.186Z,95887.03
2022-10-20T02:24:10.016Z,95881.94
2022-10-20T02:26:41.206Z,95884.91
2022-10-20T02:29:16.284Z,95876.31
2022-10-20T02:31:48.362Z,95873.06
2022-10-20T02:34:17.952Z,95868.25
2022-10-20T02:36:47.485Z,95867.72
2022-10-20T02:39:16.902Z,95861.00
2022-10-20T02:41:46.268Z,95860.75
2022-10-20T02:44:15.824Z,95863.16
2022-10-20T02:46:46.563Z,95855.09
2022-10-20T02:49:16.003Z,95854.03
2022-10-20T02:51:45.388Z,95854.84
2022-10-20T02:54:14.816Z,95858.34
2022-10-20T02:56:44.245Z,95859.16
2022-10-20T02:59:16.816Z,95859.41
2022-10-20T03:01:48.151Z,95859.16
2022-10-20T03:04:17.692Z,95859.94
2022-10-20T03:06:47.141Z,95859.16
2022-10-20T03:09:16.639Z,95861.84
2022-10-20T03:11:46.040Z,95863.47
2022-10-20T03:14:15.685Z,95869.66
2022-10-20T03:16:45.095Z,95865.34
2022-10-20T03:19:16.162Z,95870.47
2022-10-20T03:21:46.201Z,95875.84
2022-10-20T03:24:15.850Z,95869.38
2022-10-20T03:26:45.316Z,95865.63
2022-10-20T03:29:14.710Z,95863.19
2022-10-20T03:31:44.160Z,95862.94
2022-10-20T03:34:14.952Z,95859.44
2022-10-20T03:36:44.335Z,95858.09
2022-10-20T03:39:13.748Z,95859.97
2022-10-20T03:41:43.145Z,95859.72
2022-10-20T03:44:12.817Z,95855.66
2022-10-20T03:46:42.213Z,95850.03
2022-10-20T03:49:11.647Z,95851.09
2022-10-20T03:51:42.425Z,95845.97
2022-10-20T03:54:11.905Z,95846.78
2022-10-20T03:56:41.520Z,95848.66
2022-10-20T03:59:12.249Z,95853.50
2022-10-20T04:01:46.861Z,95850.81
2022-10-20T04:04:16.494Z,95851.63
2022-10-20T04:06:47.294Z,95860.75
2022-10-20T04:09:16.718Z,95861.03
2022-10-20T04:11:46.105Z,95858.59
2022-10-20T04:14:15.574Z,95861.56
2022-10-20T04:16:44.937Z,95868.56
2022-10-20T04:19:15.387Z,95860.47
2022-10-20T04:21:46.123Z,95850.53
2022-10-20T04:24:15.794Z,95848.09
2022-10-20T04:26:45.198Z,95850.78
2022-10-20T04:29:14.613Z,95846.47
2022-10-20T04:31:48.322Z,95836.78
2022-10-20T04:34:18.835Z,95839.47
2022-10-20T04:36:49.692Z,95839.72
2022-10-20T04:39:19.363Z,95838.09
2022-10-20T04:41:48.768Z,95830.03
2022-10-20T04:44:18.430Z,95830.28
2022-10-20T04:46:48.079Z,95830.81
2022-10-20T04:49:17.514Z,95826.50
2022-10-20T04:51:46.886Z,95829.44
2022-10-20T04:54:17.669Z,95826.25
2022-10-20T04:56:47.050Z,95832.44
2022-10-20T04:59:16.561Z,95834.31
2022-10-20T05:01:46.022Z,95830.00
2022-10-20T05:04:20.887Z,95820.31
2022-10-20T05:06:51.186Z,95828.66
2022-10-20T05:09:21.971Z,95824.34
2022-10-20T05:11:51.383Z,95823.78
2022-10-20T05:14:21.184Z,95825.94
2022-10-20T05:16:50.556Z,95825.94
2022-10-20T05:19:20.610Z,95827.81
2022-10-20T05:21:50.032Z,95818.94
2022-10-20T05:24:22.801Z,95814.34
2022-10-20T05:26:55.522Z,95808.16
2022-10-20T05:29:25.377Z,95810.31
2022-10-20T05:31:54.832Z,95808.94
2022-10-20T05:34:25.279Z,95813.78
2022-10-20T05:36:55.012Z,95811.59
2022-10-20T05:39:25.736Z,95806.19
2022-10-20T05:41:55.230Z,95807.81
2022-10-20T05:44:24.922Z,95801.34
2022-10-20T05:46:56.353Z,95800.50
2022-10-20T05:49:25.733Z,95801.81
2022-10-20T05:51:55.208Z,95802.34
2022-10-20T05:54:26.118Z,95805.78
2022-10-20T05:56:55.693Z,95804.41
2022-10-20T05:59:25.386Z,95813.03
2022-10-20T06:01:54.839Z,95811.69
2022-10-20T06:04:25.510Z,95807.38
2022-10-20T06:06:55.898Z,95807.88
2022-10-20T06:09:26.762Z,95811.63
2022-10-20T06:11:59.499Z,95812.72
2022-10-20T06:14:29.407Z,95815.66
2022-10-20T06:16:59.324Z,95815.09
2022-10-20T06:19:28.845Z,95816.94
2022-10-20T06:22:02.503Z,95820.69
2022-10-20T06:24:36.662Z,95815.84
2022-10-20T06:27:06.206Z,95825.78
2022-10-20T06:29:35.685Z,95829.53
2022-10-20T06:32:05.744Z,95829.53
2022-10-20T06:34:35.185Z,95828.97
2022-10-20T06:37:04.680Z,95832.47
2022-10-20T06:39:34.009Z,95826.28
2022-10-20T06:42:09.579Z,95827.38
2022-10-20T06:44:47.560Z,95826.84
2022-10-20T06:47:16.990Z,95813.41
2022-10-20T06:49:46.445Z,95810.19
2022-10-20T06:52:15.843Z,95815.31
2022-10-20T06:54:45.209Z,95819.38
2022-10-20T06:57:15.977Z,95810.78
2022-10-20T06:59:45.332Z,95809.22
2022-10-20T07:02:14.937Z,95812.19
2022-10-20T07:04:44.740Z,95803.59
2022-10-20T07:07:14.107Z,95802.81
2022-10-20T07:09:43.544Z,95806.84
2022-10-20T07:12:12.950Z,95811.72
2022-10-20T07:14:43.718Z,95810.16
2022-10-20T07:17:13.105Z,95815.84
2022-10-20T07:19:42.517Z,95814.50
2022-10-20T07:22:11.903Z,95804.03
2022-10-20T07:24:41.275Z,95813.19
2022-10-20T07:27:10.897Z,95821.28
2022-10-20T07:29:40.516Z,95816.19
2022-10-20T07:32:11.257Z,95803.00
2022-10-20T07:34:40.625Z,95811.94
2022-10-20T07:37:10.018Z,95803.63
2022-10-20T07:39:39.488Z,95797.72
2022-10-20T07:42:08.892Z,95803.09
2022-10-20T07:44:38.504Z,95796.66
2022-10-20T07:47:07.898Z,95793.16
2022-10-20T07:49:43.900Z,95790.22
2022-10-20T07:52:16.298Z,95795.59
2022-10-20T07:54:46.193Z,95796.16
2022-10-20T07:57:15.600Z,95791.56
2022-10-20T07:59:45.158Z,95790.75
2022-10-20T08:02:15.788Z,95789.69
2022-10-20T08:04:46.620Z,95790.78
2022-10-20T08:07:16.314Z,95797.25
2022-10-20T08:12:20.177Z,95789.44
2022-10-20T08:14:49.585Z,95778.41
2022-10-20T08:17:19.602Z,95783.53
2022-10-20T08:20:02.143Z,95783.53
2022-10-20T08:22:31.549Z,95777.63
2022-10-20T08:25:01.384Z,95779.78
2022-10-20T08:27:31.901Z,95770.09
2022-10-20T08:30:22.379Z,95769.28
2022-10-20T08:32:52.707Z,95777.09
2022-10-20T08:35:24.825Z,95778.16
2022-10-20T08:37:54.661Z,95765.78
2022-10-20T08:40:29.099Z,95764.69
2022-10-20T08:42:59.024Z,95774.41
2022-10-20T08:45:32.662Z,95769.56
2022-10-20T08:48:04.773Z,95759.31
2022-10-20T08:50:35.988Z,95764.19
2022-10-20T08:53:05.884Z,95748.81
2022-10-20T08:55:35.536Z,95748.53
2022-10-20T08:58:08.901Z,95758.50
2022-10-20T09:00:39.529Z,95766.31
2022-10-20T09:03:18.623Z,95763.63
2022-10-20T09:05:56.654Z,95765.78
2022-10-20T09:08:30.765Z,95761.72
2022-10-20T09:11:00.212Z,95759.03
2022-10-20T09:13:33.794Z,95762.28
2022-10-20T09:16:08.537Z,95760.66
2022-10-20T09:18:38.101Z,95769.81
2022-10-20T09:21:15.957Z,95764.69
2022-10-20T09:26:37.534Z,95760.66
2022-10-20T09:29:20.588Z,95749.06
2022-10-20T09:31:53.812Z,95748.78
2022-10-20T09:34:35.097Z,95756.06
2022-10-20T09:37:14.711Z,95754.44
2022-10-20T09:39:55.814Z,95754.13
2022-10-20T09:42:32.550Z,95752.22
2022-10-20T09:45:07.664Z,95752.22
2022-10-20T09:47:37.096Z,95745.19
2022-10-20T09:50:14.560Z,95752.47
2022-10-20T09:52:48.420Z,95748.44
2022-10-20T09:55:31.885Z,95747.63
2022-10-20T09:58:04.243Z,95747.03
2022-10-20T10:00:38.316Z,95746.72
2022-10-20T10:03:21.256Z,95750.75
2022-10-20T10:05:53.195Z,95748.06
2022-10-20T10:08:27.555Z,95749.13
2022-10-20T10:11:05.095Z,95752.91
2022-10-20T10:13:43.198Z,95751.03
2022-10-20T10:16:16.124Z,95759.38
2022-10-20T10:18:49.458Z,95752.03
2022-10-20T10:21:20.163Z,95760.06
2022-10-20T10:23:57.273Z,95753.75
2022-10-20T10:26:53.661Z,95740.38
2022-10-20T10:29:29.195Z,95727.03
2022-10-20T10:32:02.709Z,95728.84
2022-10-20T10:35:16.577Z,95726.09
2022-10-20T10:37:47.317Z,95723.63
2022-10-20T10:40:21.969Z,95731.69
2022-10-20T10:43:30.609Z,95717.91
2022-10-20T10:46:07.474Z,95722.97
2022-10-20T10:49:11.629Z,95724.81
2022-10-20T10:51:57.996Z,95713.13
2022-10-20T10:54:56.125Z,95717.41
2022-10-20T10:57:38.179Z,95716.00
2022-10-20T11:00:21.329Z,95712.72
2022-10-20T11:03:43.741Z,95722.97
2022-10-20T11:06:23.315Z,95719.63
2022-10-20T11:09:18.404Z,95711.44
2022-10-20T11:12:43.584Z,95706.28
2022-10-20T11:15:39.589Z,95704.59
2022-10-20T11:18:26.612Z,95711.28
2022-10-20T11:21:13.878Z,95711.78
2022-10-20T11:24:21.426Z,95713.41
2022-10-20T11:27:05.468Z,95714.19
2022-10-20T11:29:40.542Z,95711.78
2022-10-20T11:32:27.520Z,95709.59
2022-10-20T11:35:07.275Z,95714.38
2022-10-20T11:37:45.924Z,95699.44
2022-10-20T11:40:25.162Z,95695.56
2022-10-20T11:43:10.336Z,95696.84
2022-10-20T11:45:50.372Z,95699.56
2022-10-20T11:48:30.449Z,95688.44
2022-10-20T11:51:44.877Z,95696.09
2022-10-20T11:54:55.187Z,95695.75
2022-10-20T11:57:44.837Z,95688.91
2022-10-20T12:00:36.769Z,95674.72
2022-10-20T12:03:59.414Z,95670.44
2022-10-20T12:07:23.445Z,95662.78
2022-10-20T12:10:14.913Z,95666.06
2022-10-20T12:12:59.684Z,95649.03
2022-10-20T12:15:29.434Z,95657.31
2022-10-20T12:18:06.023Z,95652.91
2022-10-20T12:21:06.008Z,95644.97
2022-10-20T12:24:04.775Z,95646.97
2022-10-20T12:27:18.670Z,95648.88
2022-10-20T12:30:02.469Z,95653.81
2022-10-20T12:33:20.032Z,95663.03
2022-10-20T12:36:33.659Z,95664.66
2022-10-20T12:39:21.416Z,95649.22
2022-10-20T12:42:01.359Z,95643.28
2022-10-20T12:44:42.724Z,95643.91
2022-10-20T12:47:21.434Z,95637.63
2022-10-20T12:49:56.919Z,95635.44
2022-10-20T12:52:32.474Z,95637.59
2022-10-20T12:55:09.254Z,95635.47
2022-10-20T12:57:42.319Z,95639.19
2022-10-20T13:01:08.737Z,95645.44
2022-10-20T13:03:46.801Z,95656.63
2022-10-20T13:06:44.401Z,95660.13
2022-10-20T13:09:25.549Z,95679.88
2022-10-20T13:12:05.944Z,95677.19
2022-10-20T13:14:53.671Z,95665.59
2022-10-20T13:17:49.772Z,95669.44
2022-10-20T13:20:39.610Z,95656.56
2022-10-20T13:23:15.295Z,95653.84
2022-10-20T13:25:50.541Z,95659.25
2022-10-20T13:28:25.910Z,95656.22
2022-10-20T13:31:14.959Z,95654.53
2022-10-20T13:34:04.376Z,95652.00
2022-10-20T13:37:02.731Z,95657.75
2022-10-20T13:39:46.563Z,95665.94
2022-10-20T13:42:41.881Z,95670.34
2022-10-20T13:45:25.901Z,95668.00
2022-10-20T13:48:14.535Z,95670.50
2022-10-20T13:50:47.856Z,95669.19
2022-10-20T13:53:25.862Z,95671.38
2022-10-20T13:56:03.573Z,95663.88
2022-10-20T13:58:35.978Z,95671.50
2022-10-20T14:01:11.780Z,95670.97
2022-10-20T14:03:45.928Z,95673.75
2022-10-20T14:06:32.663Z,95667.91
2022-10-20T14:09:16.153Z,95670.91
2022-10-20T14:11:48.369Z,95672.28
2022-10-20T14:14:25.394Z,95689.72
2022-10-20T14:17:01.154Z,95681.09
2022-10-20T14:19:33.487Z,95674.59
2022-10-20T14:22:19.138Z,95652.28
2022-10-20T14:24:52.802Z,95644.97
2022-10-20T14:27:28.091Z,95650.09
2022-10-20T14:29:59.851Z,95649.28
2022-10-20T14:32:32.138Z,95650.69
2022-10-20T14:35:12.496Z,95662.03
2022-10-20T14:37:53.313Z,95649.81
2022-10-20T14:40:26.898Z,95657.56
2022-10-20T14:43:06.755Z,95657.19
2022-10-20T14:45:37.502Z,95661.44
2022-10-20T14:48:14.089Z,95670.00
2022-10-20T14:50:44.040Z,95668.09
2022-10-20T14:53:32.356Z,95652.13
2022-10-20T14:56:04.232Z,95650.78
2022-10-20T14:59:00.330Z,95649.50
2022-10-20T15:01:32.691Z,95636.25
2022-10-20T15:04:17.278Z,95633.31
2022-10-20T15:06:46.833Z,95619.56
2022-10-20T15:09:25.339Z,95619.34
2022-10-20T15:11:55.158Z,95622.63
2022-10-20T15:14:24.808Z,95614.56
2022-10-20T15:16:55.807Z,95609.75
2022-10-20T15:19:36.061Z,95601.44
2022-10-20T15:24:49.860Z,95609.69
2022-10-20T15:27:19.773Z,95607.34
2022-10-20T15:29:52.452Z,95617.22
2022-10-20T15:32:23.342Z,95607.38
2022-10-20T15:34:52.802Z,95604.75
2022-10-20T15:37:22.286Z,95595.91
2022-10-20T15:39:51.716Z,95590.06
2022-10-20T15:42:21.227Z,95577.69
2022-10-20T15:44:50.613Z,95567.72
2022-10-20T15:48:23.918Z,95569.47
2022-10-20T15:50:57.886Z,95566.53
2022-10-20T15:53:27.794Z,95560.91
2022-10-20T15:55:58.524Z,95562.59
2022-10-20T15:58:27.958Z,95561.25
2022-10-20T16:00:57.423Z,95564.03
2022-10-20T16:03:28.210Z,95553.25
2022-10-20T16:05:57.569Z,95548.72
2022-10-20T16:08:26.962Z,95552.81
2022-10-20T16:10:56.793Z,95559.34
2022-10-20T16:13:26.314Z,95550.47
2022-10-20T16:15:55.847Z,95544.84
2022-10-20T16:18:25.284Z,95538.91
2022-10-20T16:20:58.760Z,95534.06
2022-10-20T16:23:28.782Z,95537.34
2022-10-20T16:25:58.306Z,95527.91
2022-10-20T16:28:27.741Z,95527.38
2022-10-20T16:31:07.997Z,95525.53
2022-10-20T16:33:37.703Z,95525.34
2022-10-20T16:36:12.322Z,95516.19
2022-10-20T16:38:42.196Z,95523.25
2022-10-20T16:41:15.573Z,95523.31
2022-10-20T16:43:47.141Z,95515.25
2022-10-20T16:46:17.355Z,95520.94
2022-10-20T16:48:48.331Z,95520.69
2022-10-20T16:51:19.520Z,95521.28
2022-10-20T16:53:49.708Z,95523.75
2022-10-20T16:56:20.960Z,95528.63
2022-10-20T16:58:50.996Z,95528.38
2022-10-20T17:01:22.924Z,95533.25
2022-10-20T17:03:54.689Z,95525.97
2022-10-20T17:06:27.665Z,95523.03
2022-10-20T17:08:59.790Z,95524.41
2022-10-20T17:11:32.970Z,95534.44
2022-10-20T17:14:02.724Z,95533.72
2022-10-20T17:16:35.100Z,95542.13
2022-10-20T17:19:04.779Z,95534.06
2022-10-20T17:21:36.120Z,95538.41
2022-10-20T17:24:09.485Z,95548.44
2022-10-20T17:26:39.676Z,95538.28
2022-10-20T17:29:09.583Z,95542.09
2022-10-20T17:31:40.128Z,95540.50
2022-10-20T17:34:10.894Z,95530.56
2022-10-20T17:36:41.909Z,95526.53
2022-10-20T17:39:17.341Z,95531.19
2022-10-20T17:41:48.337Z,95529.59
2022-10-20T17:44:17.819Z,95524.78
2022-10-20T17:46:47.225Z,95519.13
2022-10-20T17:49:16.623Z,95514.28
2022-10-20T17:51:47.513Z,95517.06
2022-10-20T17:54:16.906Z,95513.56
2022-10-20T17:56:47.595Z,95515.75
2022-10-20T17:59:17.039Z,95506.59
2022-10-20T18:01:46.503Z,95508.78
2022-10-20T18:04:18.349Z,95513.13
2022-10-20T18:06:49.314Z,95506.13
2022-10-20T18:09:20.537Z,95523.41
2022-10-20T18:11:53.245Z,95528.81
2022-10-20T18:14:22.655Z,95531.81
2022-10-20T18:16:52.076Z,95533.47
2022-10-20T18:19:21.506Z,95529.72
2022-10-20T18:21:52.573Z,95532.16
2022-10-20T18:24:21.996Z,95528.41
2022-10-20T18:26:51.383Z,95517.88
2022-10-20T18:29:20.779Z,95508.19
2022-10-20T18:31:51.299Z,95510.63
2022-10-20T18:34:21.990Z,95506.06
2022-10-20T18:36:55.862Z,95506.34
2022-10-20T18:39:25.349Z,95503.69
2022-10-20T18:41:55.133Z,95508.81
2022-10-20T18:44:25.190Z,95501.53
2022-10-20T18:46:58.338Z,95497.78
2022-10-20T18:49:28.104Z,95505.59
2022-10-20T18:51:59.509Z,95495.63
2022-10-20T18:54:28.918Z,95495.41
2022-10-20T18:56:58.353Z,95497.56
2022-10-20T18:59:28.099Z,95495.41
2022-10-20T19:01:57.511Z,95497.03
2022-10-20T19:04:26.945Z,95495.16
2022-10-20T19:06:57.678Z,95493.81
2022-10-20T19:09:27.214Z,95497.84
2022-10-20T19:11:57.539Z,95489.50
2022-10-20T19:14:28.309Z,95484.94
2022-10-20T19:16:57.685Z,95487.63
2022-10-20T19:19:27.103Z,95485.72
2022-10-20T19:21:57.963Z,95484.16
2022-10-20T19:24:27.309Z,95489.00
2022-10-20T19:29:48.504Z,95481.72
2022-10-20T19:32:17.917Z,95483.56
2022-10-20T19:34:47.323Z,95487.63
2022-10-20T19:37:18.303Z,95495.97
2022-10-20T19:39:47.761Z,95492.19
2022-10-20T19:42:17.161Z,95493.00
2022-10-20T19:44:46.675Z,95497.31
2022-10-20T19:47:16.812Z,95491.38
2022-10-20T19:49:46.721Z,95496.22
2022-10-20T19:52:17.704Z,95492.19
2022-10-20T19:54:47.207Z,95494.63
2022-10-20T19:57:16.612Z,95495.69
2022-10-20T19:59:46.116Z,95502.44
2022-10-20T20:02:15.562Z,95504.06
2022-10-20T20:04:45.408Z,95502.44
2022-10-20T20:07:15.053Z,95506.75
2022-10-20T20:09:49.416Z,95510.78
2022-10-20T20:12:21.084Z,95514.03
2022-10-20T20:14:50.539Z,95522.63
2022-10-20T20:17:20.037Z,95531.50
2022-10-20T20:19:49.418Z,95535.53
2022-10-20T20:22:18.953Z,95536.63
2022-10-20T20:24:49.762Z,95546.56
2022-10-20T20:27:19.189Z,95545.50
2022-10-20T20:29:48.572Z,95552.50
2022-10-20T20:32:18.134Z,95559.22
2022-10-20T20:34:47.538Z,95556.53
2022-10-20T20:37:16.949Z,95558.69
2022-10-20T20:39:46.292Z,95563.25
2022-10-20T20:42:17.249Z,95573.75
2022-10-20T20:44:46.633Z,95581.03
2022-10-20T20:47:15.990Z,95588.56
2022-10-20T20:49:45.363Z,95586.41
2022-10-20T20:52:14.755Z,95590.44
2022-10-20T20:54:44.151Z,95593.94
2022-10-20T20:57:13.573Z,95588.81
2022-10-20T20:59:44.542Z,95587.75
2022-10-20T21:02:13.946Z,95590.97
2022-10-20T21:04:43.436Z,95599.31
2022-10-20T21:07:13.481Z,95617.34
2022-10-20T21:09:42.866Z,95623.25
2022-10-20T21:14:49.275Z,95614.63
2022-10-20T21:17:18.817Z,95608.97
2022-10-20T21:19:48.394Z,95608.44
2022-10-20T21:22:18.041Z,95625.13
2022-10-20T21:24:47.467Z,95635.63
2022-10-20T21:27:16.853Z,95650.44
2022-10-20T21:29:46.490Z,95648.00
2022-10-20T21:32:18.400Z,95645.84
2022-10-20T21:34:48.141Z,95640.47
2022-10-20T21:37:17.589Z,95647.47
2022-10-20T21:39:46.978Z,95649.34
2022-10-20T21:42:16.597Z,95646.66
2022-10-20T21:44:46.160Z,95649.06
2022-10-20T21:47:16.925Z,95650.69
2022-10-20T21:49:46.337Z,95652.84
2022-10-20T21:52:15.707Z,95651.78
2022-10-20T21:54:45.188Z,95655.03
2022-10-20T21:57:16.333Z,95653.13
2022-10-20T21:59:50.334Z,95641.31
2022-10-20T22:02:21.093Z,95633.50
2022-10-20T22:04:50.538Z,95624.91
2022-10-20T22:07:19.966Z,95628.94
2022-10-20T22:09:49.507Z,95611.72
2022-10-20T22:12:19.038Z,95607.69
2022-10-20T22:14:48.442Z,95589.38
2022-10-20T22:17:17.859Z,95584.50
2022-10-20T22:19:50.231Z,95589.38
2022-10-20T22:22:19.656Z,95586.41
2022-10-20T22:24:49.660Z,95577.25
2022-10-20T22:27:31.491Z,95569.19
2022-10-20T22:30:24.642Z,95578.88
2022-10-20T22:32:54.406Z,95584.25
2022-10-20T22:35:25.428Z,95580.75
2022-10-20T22:37:55.344Z,95580.47
2022-10-20T22:40:24.820Z,95600.94
2022-10-20T22:42:54.372Z,95596.63
2022-10-20T22:45:23.772Z,95602.81
2022-10-20T22:47:53.276Z,95601.22
2022-10-20T22:50:24.184Z,95598.25
2022-10-20T22:52:53.559Z,95599.06
2022-10-20T22:55:23.025Z,95589.91
2022-10-20T22:57:53.574Z,95588.03
2022-10-20T23:00:22.989Z,95586.13
2022-10-20T23:02:52.394Z,95585.06
2022-10-20T23:05:21.806Z,95570.53
2022-10-20T23:07:52.580Z,95562.19
2022-10-20T23:10:22.360Z,95562.72
2022-10-20T23:12:51.763Z,95550.06
2022-10-20T23:15:21.281Z,95542.78
2022-10-20T23:17:50.840Z,95537.94
2022-10-20T23:20:20.245Z,95529.59
2022-10-20T23:22:49.686Z,95530.13
2022-10-20T23:25:27.058Z,95526.38
2022-10-20T23:27:56.553Z,95526.38
2022-10-20T23:30:25.945Z,95526.91
2022-10-20T23:32:55.406Z,95525.03
2022-10-20T23:35:24.785Z,95523.63
2022-10-20T23:37:54.157Z,95519.88
2022-10-20T23:40:24.907Z,95509.63
2022-10-20T23:42:54.357Z,95512.88
2022-10-20T23:45:23.744Z,95523.38
2022-10-20T23:47:53.271Z,95517.16
2022-10-20T23:50:24.375Z,95509.91
2022-10-20T23:52:54.450Z,95516.91
2022-10-20T23:55:25.270Z,95513.13
2022-10-20T23:57:54.801Z,95513.66
